createdAt,value
2023-01-25T00:00:15.949Z,8.68
2023-01-25T00:03:06.502Z,10.00
2023-01-25T00:05:36.236Z,9.10
2023-01-25T00:08:05.753Z,9.82
2023-01-25T00:10:35.130Z,8.65
2023-01-25T00:13:04.415Z,8.75
2023-01-25T00:15:33.902Z,10.52
2023-01-25T00:18:02.994Z,8.50
2023-01-25T00:20:33.723Z,10.32
2023-01-25T00:23:02.830Z,9.07
2023-01-25T00:25:32.230Z,8.25
2023-01-25T00:28:01.380Z,8.10
2023-01-25T00:30:30.904Z,8.85
2023-01-25T00:33:07.796Z,8.75
2023-01-25T00:35:39.885Z,8.95
2023-01-25T00:38:28.742Z,8.98
2023-01-25T00:40:59.848Z,8.90
2023-01-25T00:43:29.274Z,9.30
2023-01-25T00:46:02.998Z,8.23
2023-01-25T00:48:32.394Z,9.50
2023-01-25T00:51:04.619Z,10.50
2023-01-25T00:53:34.092Z,9.35
2023-01-25T00:56:03.822Z,9.68
2023-01-25T00:58:33.109Z,8.70
2023-01-25T01:01:02.574Z,8.43
2023-01-25T01:03:31.819Z,10.75
2023-01-25T01:06:04.772Z,9.63
2023-01-25T01:08:36.861Z,9.80
2023-01-25T01:11:09.089Z,10.20
2023-01-25T01:13:40.233Z,9.13
2023-01-25T01:16:12.482Z,11.27
2023-01-25T01:18:43.541Z,12.20
2023-01-25T01:21:15.641Z,10.45
2023-01-25T01:23:44.911Z,9.93
2023-01-25T01:26:16.374Z,11.15
2023-01-25T01:28:45.595Z,9.95
2023-01-25T01:31:17.224Z,11.73
2023-01-25T01:34:13.350Z,9.25
2023-01-25T01:36:44.689Z,11.20
2023-01-25T01:39:14.005Z,9.18
2023-01-25T01:41:43.430Z,9.07
2023-01-25T01:44:19.378Z,9.80
2023-01-25T01:46:56.244Z,11.27
2023-01-25T01:49:31.669Z,10.00
2023-01-25T01:52:24.115Z,8.82
2023-01-25T01:54:57.983Z,10.68
2023-01-25T01:57:33.342Z,10.60
2023-01-25T02:02:43.048Z,9.93
2023-01-25T02:05:19.488Z,11.25
2023-01-25T02:07:54.951Z,12.02
2023-01-25T02:12:58.145Z,9.43
2023-01-25T02:15:34.569Z,9.65
2023-01-25T02:18:04.844Z,12.15
2023-01-25T02:20:38.295Z,10.45
2023-01-25T02:23:17.863Z,9.45
2023-01-25T02:25:48.505Z,11.32
2023-01-25T02:28:24.290Z,9.50
2023-01-25T02:30:53.591Z,9.80
2023-01-25T02:33:27.342Z,11.07
2023-01-25T02:36:01.344Z,10.15
2023-01-25T02:38:34.275Z,14.20
2023-01-25T02:41:11.792Z,9.80
2023-01-25T02:43:43.237Z,10.45
2023-01-25T02:46:20.496Z,10.95
2023-01-25T02:48:50.048Z,11.80
2023-01-25T02:51:19.143Z,11.73
2023-01-25T02:53:49.269Z,11.68
2023-01-25T02:56:20.497Z,11.32
2023-01-25T02:58:51.306Z,10.00
2023-01-25T03:01:22.484Z,10.45
2023-01-25T03:03:52.113Z,12.65
2023-01-25T03:06:22.282Z,10.98
2023-01-25T03:08:51.677Z,11.10
2023-01-25T03:11:23.269Z,12.00
2023-01-25T03:13:53.974Z,11.75
2023-01-25T03:16:23.640Z,9.93
2023-01-25T03:18:55.881Z,10.57
2023-01-25T03:21:26.893Z,11.70
2023-01-25T03:23:59.111Z,11.82
2023-01-25T03:26:53.169Z,12.98
2023-01-25T03:29:24.388Z,11.95
2023-01-25T03:36:48.964Z,10.55
2023-01-25T03:39:18.169Z,10.20
2023-01-25T03:41:49.117Z,10.85
2023-01-25T03:44:19.193Z,11.52
2023-01-25T03:46:49.739Z,11.60
2023-01-25T03:49:19.668Z,11.50
2023-01-25T03:51:49.261Z,12.55
2023-01-25T03:54:19.539Z,10.80
2023-01-25T03:56:51.152Z,12.52
2023-01-25T03:59:26.644Z,11.48
2023-01-25T04:01:57.541Z,11.52
2023-01-25T04:04:26.755Z,10.93
2023-01-25T04:06:56.566Z,10.00
2023-01-25T04:09:26.837Z,10.18
2023-01-25T04:12:00.716Z,10.73
2023-01-25T04:14:43.583Z,10.25
2023-01-25T04:17:15.735Z,10.98
2023-01-25T04:20:05.752Z,10.07
2023-01-25T04:22:39.873Z,10.30
2023-01-25T04:25:10.166Z,9.68
2023-01-25T04:27:46.082Z,9.93
2023-01-25T04:30:18.476Z,9.85
2023-01-25T04:32:48.936Z,8.60
2023-01-25T04:35:23.100Z,9.20
2023-01-25T04:37:57.053Z,9.48
2023-01-25T04:40:28.905Z,10.52
2023-01-25T04:43:00.009Z,9.52
2023-01-25T04:45:30.966Z,8.48
2023-01-25T04:48:02.594Z,9.60
2023-01-25T04:50:33.217Z,9.18
2023-01-25T04:53:02.822Z,9.27
2023-01-25T04:55:33.854Z,11.07
2023-01-25T04:58:06.167Z,9.80
2023-01-25T05:00:36.004Z,9.82
2023-01-25T05:03:06.190Z,11.35
2023-01-25T05:05:35.750Z,9.90
2023-01-25T05:08:09.617Z,8.68
2023-01-25T05:10:39.241Z,9.63
2023-01-25T05:13:28.846Z,9.05
2023-01-25T05:16:10.047Z,9.13
2023-01-25T05:18:48.364Z,9.60
2023-01-25T05:21:40.190Z,8.98
2023-01-25T05:24:10.861Z,11.40
2023-01-25T05:26:58.177Z,13.65
2023-01-25T05:29:30.139Z,10.50
2023-01-25T05:32:04.433Z,10.45
2023-01-25T05:34:34.917Z,11.25
2023-01-25T05:37:05.165Z,10.63
2023-01-25T05:39:35.344Z,10.50
2023-01-25T05:42:05.375Z,14.60
2023-01-25T05:44:36.404Z,13.77
2023-01-25T05:47:06.119Z,12.93
2023-01-25T05:49:35.650Z,10.18
2023-01-25T05:52:07.398Z,11.15
2023-01-25T05:54:37.811Z,11.20
2023-01-25T05:57:08.399Z,12.13
2023-01-25T05:59:39.263Z,11.07
2023-01-25T06:02:12.364Z,12.88
2023-01-25T06:04:42.923Z,11.13
2023-01-25T06:07:12.642Z,12.60
2023-01-25T06:09:43.361Z,12.55
2023-01-25T06:12:12.542Z,12.10
2023-01-25T06:14:43.332Z,12.90
2023-01-25T06:17:12.469Z,13.93
2023-01-25T06:20:02.345Z,16.52
2023-01-25T06:22:51.387Z,15.63
2023-01-25T06:25:20.791Z,14.43
2023-01-25T06:27:49.888Z,13.35
2023-01-25T06:30:20.965Z,12.73
2023-01-25T06:32:50.589Z,14.93
2023-01-25T06:35:20.043Z,15.48
2023-01-25T06:37:49.388Z,14.82
2023-01-25T06:40:19.083Z,13.52
2023-01-25T06:42:48.123Z,14.77
2023-01-25T06:45:19.261Z,13.57
2023-01-25T06:47:50.627Z,15.85
2023-01-25T06:50:20.055Z,15.30
2023-01-25T06:52:54.057Z,14.05
2023-01-25T06:55:24.396Z,17.08
2023-01-25T06:57:53.482Z,17.05
2023-01-25T07:00:24.551Z,16.13
2023-01-25T07:02:53.730Z,15.75
2023-01-25T07:05:24.172Z,15.45
2023-01-25T07:07:53.399Z,16.05
2023-01-25T07:10:22.854Z,15.63
2023-01-25T07:12:51.999Z,14.77
2023-01-25T07:15:21.342Z,16.10
2023-01-25T07:17:51.858Z,15.60
2023-01-25T07:20:21.321Z,14.35
2023-01-25T07:22:50.394Z,20.27
2023-01-25T07:25:19.766Z,19.65
2023-01-25T07:27:48.958Z,36.30
2023-01-25T07:30:21.729Z,17.98
2023-01-25T07:32:52.264Z,19.80
2023-01-25T07:35:21.764Z,16.23
2023-01-25T07:37:50.806Z,16.33
2023-01-25T07:40:20.432Z,18.33
2023-01-25T07:42:49.685Z,16.92
2023-01-25T07:45:20.759Z,19.05
2023-01-25T07:47:51.431Z,20.50
2023-01-25T07:50:20.885Z,20.27
2023-01-25T07:52:50.106Z,19.02
2023-01-25T07:55:19.557Z,17.95
2023-01-25T07:57:49.175Z,27.55
2023-01-25T08:00:19.416Z,23.92
2023-01-25T08:02:53.703Z,20.80
2023-01-25T08:05:23.101Z,22.20
2023-01-25T08:07:52.353Z,22.33
2023-01-25T08:10:21.944Z,17.38
2023-01-25T08:12:51.014Z,21.17
2023-01-25T08:15:20.426Z,19.00
2023-01-25T08:17:49.628Z,23.23
2023-01-25T08:20:22.144Z,20.38
2023-01-25T08:22:53.066Z,18.85
2023-01-25T08:25:22.721Z,30.65
2023-01-25T08:27:52.288Z,20.73
2023-01-25T08:30:24.439Z,22.75
2023-01-25T08:32:54.218Z,20.08
2023-01-25T08:35:25.185Z,20.70
2023-01-25T08:37:54.450Z,25.05
2023-01-25T08:40:23.939Z,19.83
2023-01-25T08:42:53.056Z,25.35
2023-01-25T08:45:22.708Z,20.73
2023-01-25T08:47:51.875Z,19.73
2023-01-25T08:50:21.449Z,20.25
2023-01-25T08:52:52.794Z,24.80
2023-01-25T08:55:22.260Z,19.85
2023-01-25T08:57:51.422Z,18.90
2023-01-25T09:00:21.946Z,21.73
2023-01-25T09:02:51.061Z,38.55
2023-01-25T09:05:20.605Z,29.45
2023-01-25T09:07:51.194Z,33.30
2023-01-25T09:10:20.897Z,26.75
2023-01-25T09:12:51.229Z,30.98
2023-01-25T09:15:20.838Z,30.38
2023-01-25T09:17:52.683Z,21.13
2023-01-25T09:20:22.346Z,22.00
2023-01-25T09:22:53.227Z,18.55
2023-01-25T09:25:22.648Z,19.10
2023-01-25T09:27:52.520Z,16.08
2023-01-25T09:30:26.359Z,17.25
2023-01-25T09:32:59.948Z,18.15
2023-01-25T09:35:29.731Z,20.83
2023-01-25T09:38:00.357Z,16.48
2023-01-25T09:40:40.359Z,14.88
2023-01-25T09:43:22.256Z,16.35
2023-01-25T09:45:51.628Z,17.00
2023-01-25T09:48:28.653Z,16.83
2023-01-25T09:51:17.995Z,16.58
2023-01-25T09:53:52.636Z,15.52
2023-01-25T09:56:26.216Z,17.10
2023-01-25T09:58:59.801Z,14.85
2023-01-25T10:01:42.995Z,15.32
2023-01-25T10:04:18.133Z,17.50
2023-01-25T10:07:00.197Z,16.33
2023-01-25T10:09:39.781Z,17.60
2023-01-25T10:12:16.823Z,19.10
2023-01-25T10:14:46.026Z,21.77
2023-01-25T10:17:21.872Z,20.10
2023-01-25T10:20:19.546Z,19.52
2023-01-25T10:22:52.861Z,17.77
2023-01-25T10:25:32.620Z,18.27
2023-01-25T10:28:19.718Z,22.67
2023-01-25T10:30:56.571Z,24.25
2023-01-25T10:33:27.918Z,18.50
2023-01-25T10:36:00.231Z,19.77
2023-01-25T10:38:35.067Z,20.75
2023-01-25T10:41:11.167Z,19.77
2023-01-25T10:43:41.026Z,18.92
2023-01-25T10:46:22.920Z,18.08
2023-01-25T10:48:52.377Z,20.35
2023-01-25T10:51:33.394Z,20.98
2023-01-25T10:54:05.571Z,21.67
2023-01-25T10:56:40.361Z,23.67
2023-01-25T10:59:17.434Z,26.77
2023-01-25T11:01:46.707Z,25.50
2023-01-25T11:04:32.898Z,27.08
2023-01-25T11:07:02.975Z,25.63
2023-01-25T11:09:38.562Z,23.60
2023-01-25T11:12:20.558Z,23.08
2023-01-25T11:14:50.975Z,25.13
2023-01-25T11:17:27.259Z,27.08
2023-01-25T11:20:18.991Z,25.00
2023-01-25T11:22:53.455Z,25.55
2023-01-25T11:25:31.333Z,27.25
2023-01-25T11:28:18.948Z,28.08
2023-01-25T11:30:49.225Z,26.60
2023-01-25T11:33:21.114Z,25.27
2023-01-25T11:36:21.194Z,24.67
2023-01-25T11:39:11.549Z,24.92
2023-01-25T11:41:53.664Z,27.15
2023-01-25T11:44:52.254Z,26.95
2023-01-25T11:47:37.627Z,26.20
2023-01-25T11:50:14.941Z,27.08
2023-01-25T11:53:14.123Z,26.30
2023-01-25T11:55:50.686Z,25.70
2023-01-25T11:58:37.936Z,26.80
2023-01-25T12:01:18.595Z,25.73
2023-01-25T12:04:10.416Z,25.95
2023-01-25T12:06:55.399Z,25.98
2023-01-25T12:09:43.949Z,28.05
2023-01-25T12:12:23.599Z,27.15
2023-01-25T12:15:11.414Z,30.30
2023-01-25T12:18:10.197Z,25.45
2023-01-25T12:20:55.980Z,24.90
2023-01-25T12:23:36.356Z,25.30
2023-01-25T12:26:27.137Z,26.27
2023-01-25T12:29:06.811Z,25.40
2023-01-25T12:31:43.867Z,26.10
2023-01-25T12:34:23.330Z,24.63
2023-01-25T12:36:52.953Z,27.98
2023-01-25T12:39:26.822Z,28.63
2023-01-25T12:42:04.519Z,25.10
2023-01-25T12:44:40.157Z,26.88
2023-01-25T12:47:17.148Z,26.67
2023-01-25T12:49:53.725Z,23.98
2023-01-25T12:52:29.174Z,24.42
2023-01-25T12:57:38.501Z,23.60
2023-01-25T13:00:19.747Z,25.65
2023-01-25T13:03:08.023Z,26.48
2023-01-25T13:05:48.424Z,24.33
2023-01-25T13:08:32.549Z,25.17
2023-01-25T13:11:13.325Z,24.75
2023-01-25T13:13:42.913Z,23.83
2023-01-25T13:16:43.206Z,23.30
2023-01-25T13:19:23.567Z,23.30
2023-01-25T13:21:56.745Z,24.90
2023-01-25T13:24:27.592Z,24.58
2023-01-25T13:27:02.587Z,24.50
2023-01-25T13:29:56.910Z,25.55
2023-01-25T13:33:01.314Z,25.35
2023-01-25T13:35:36.929Z,22.90
2023-01-25T13:38:26.860Z,23.77
2023-01-25T13:41:15.428Z,22.63
2023-01-25T13:43:51.116Z,23.73
2023-01-25T13:46:24.289Z,24.80
2023-01-25T13:49:04.643Z,25.50
2023-01-25T13:51:40.256Z,26.77
2023-01-25T13:54:18.644Z,26.88
2023-01-25T13:56:48.087Z,27.20
2023-01-25T13:59:27.593Z,26.05
2023-01-25T14:01:58.425Z,23.90
2023-01-25T14:04:28.483Z,22.02
2023-01-25T14:07:00.560Z,22.08
2023-01-25T14:09:31.911Z,20.30
2023-01-25T14:12:04.152Z,23.35
2023-01-25T14:14:35.038Z,22.60
2023-01-25T14:17:17.780Z,20.73
2023-01-25T14:19:50.767Z,20.55
2023-01-25T14:22:25.233Z,20.02
2023-01-25T14:25:08.522Z,21.33
2023-01-25T14:27:42.673Z,17.35
2023-01-25T14:30:21.740Z,20.23
2023-01-25T14:32:52.839Z,18.30
2023-01-25T14:38:34.153Z,19.42
2023-01-25T14:41:18.184Z,19.70
2023-01-25T14:43:49.630Z,19.77
2023-01-25T14:46:30.358Z,18.77
2023-01-25T14:49:25.450Z,17.92
2023-01-25T14:52:04.477Z,19.17
2023-01-25T14:54:36.494Z,21.80
2023-01-25T14:57:09.268Z,25.48
2023-01-25T14:59:41.027Z,23.80
2023-01-25T15:02:22.527Z,22.30
2023-01-25T15:05:11.108Z,22.58
2023-01-25T15:07:46.598Z,22.85
2023-01-25T15:10:21.916Z,21.83
2023-01-25T15:13:20.464Z,19.20
2023-01-25T15:15:56.681Z,19.75
2023-01-25T15:18:45.098Z,21.15
2023-01-25T15:21:15.913Z,17.42
2023-01-25T15:23:47.095Z,17.25
2023-01-25T15:26:20.708Z,17.65
2023-01-25T15:28:53.085Z,19.95
2023-01-25T15:31:26.168Z,17.23
2023-01-25T15:33:58.945Z,18.30
2023-01-25T15:36:28.683Z,18.40
2023-01-25T15:38:57.837Z,19.02
2023-01-25T15:41:27.244Z,18.67
2023-01-25T15:43:57.744Z,18.27
2023-01-25T15:46:29.907Z,18.73
2023-01-25T15:48:59.103Z,20.15
2023-01-25T15:51:28.764Z,22.98
2023-01-25T15:53:57.834Z,21.77
2023-01-25T15:56:31.880Z,23.25
2023-01-25T15:59:07.369Z,21.00
2023-01-25T16:01:37.011Z,25.25
2023-01-25T16:04:06.533Z,20.70
2023-01-25T16:06:40.766Z,20.40
2023-01-25T16:09:18.836Z,20.80
2023-01-25T16:11:50.681Z,22.38
2023-01-25T16:14:21.598Z,22.02
2023-01-25T16:16:52.977Z,24.77
2023-01-25T16:19:23.995Z,27.42
2023-01-25T16:21:53.456Z,23.60
2023-01-25T16:24:22.706Z,22.48
2023-01-25T16:26:54.995Z,23.88
2023-01-25T16:29:26.244Z,23.30
2023-01-25T16:31:57.294Z,22.63
2023-01-25T16:34:26.706Z,20.83
2023-01-25T16:36:57.676Z,23.00
2023-01-25T16:39:28.383Z,20.15
2023-01-25T16:41:58.004Z,21.40
2023-01-25T16:44:28.623Z,20.33
2023-01-25T16:46:58.075Z,20.13
2023-01-25T16:49:28.218Z,20.55
2023-01-25T16:51:58.059Z,21.33
2023-01-25T16:54:28.186Z,19.58
2023-01-25T16:56:58.984Z,20.50
2023-01-25T16:59:30.604Z,20.13
2023-01-25T17:02:00.345Z,22.15
2023-01-25T17:04:30.346Z,27.10
2023-01-25T17:07:00.051Z,25.50
2023-01-25T17:09:29.818Z,22.55
2023-01-25T17:11:59.293Z,34.38
2023-01-25T17:14:29.875Z,29.35
2023-01-25T17:16:59.246Z,23.60
2023-01-25T17:19:28.305Z,24.52
2023-01-25T17:21:59.183Z,25.00
2023-01-25T17:24:29.149Z,22.70
2023-01-25T17:26:59.436Z,21.95
2023-01-25T17:29:31.021Z,24.45
2023-01-25T17:32:00.660Z,22.30
2023-01-25T17:34:29.797Z,20.17
2023-01-25T17:36:59.310Z,22.05
2023-01-25T17:39:28.514Z,19.05
2023-01-25T17:41:57.949Z,18.38
2023-01-25T17:44:27.043Z,19.75
2023-01-25T17:46:57.844Z,17.33
2023-01-25T17:49:28.644Z,20.83
2023-01-25T17:51:58.083Z,20.27
2023-01-25T17:54:27.996Z,21.80
2023-01-25T17:56:57.382Z,21.88
2023-01-25T17:59:26.553Z,21.98
2023-01-25T18:01:57.980Z,24.92
2023-01-25T18:04:27.169Z,23.55
2023-01-25T18:06:56.615Z,19.83
2023-01-25T18:09:25.877Z,18.08
2023-01-25T18:11:55.234Z,19.17
2023-01-25T18:14:24.342Z,22.08
2023-01-25T18:16:53.938Z,20.13
2023-01-25T18:19:24.514Z,21.58
2023-01-25T18:21:53.894Z,21.73
2023-01-25T18:24:27.371Z,23.88
2023-01-25T18:27:02.217Z,27.92
2023-01-25T18:29:46.588Z,22.42
2023-01-25T18:32:16.668Z,21.75
2023-01-25T18:34:48.290Z,25.38
2023-01-25T18:37:21.919Z,20.13
2023-01-25T18:39:52.896Z,17.38
2023-01-25T18:42:24.230Z,17.52
2023-01-25T18:44:53.448Z,20.80
2023-01-25T18:47:24.009Z,19.63
2023-01-25T18:49:54.996Z,21.13
2023-01-25T18:52:25.743Z,21.23
2023-01-25T18:54:54.981Z,17.85
2023-01-25T18:57:25.084Z,16.65
2023-01-25T18:59:54.496Z,17.60
2023-01-25T19:02:24.062Z,21.42
2023-01-25T19:04:55.533Z,19.90
2023-01-25T19:07:24.903Z,17.58
2023-01-25T19:09:53.942Z,18.15
2023-01-25T19:12:23.347Z,20.13
2023-01-25T19:14:52.482Z,19.25
2023-01-25T19:17:21.939Z,18.67
2023-01-25T19:19:51.163Z,21.15
2023-01-25T19:22:21.976Z,22.73
2023-01-25T19:24:51.039Z,18.02
2023-01-25T19:27:20.632Z,20.38
2023-01-25T19:29:49.827Z,17.95
2023-01-25T19:32:19.240Z,19.38
2023-01-25T19:34:48.495Z,16.55
2023-01-25T19:37:17.846Z,18.38
2023-01-25T19:39:49.109Z,16.77
2023-01-25T19:42:18.835Z,15.88
2023-01-25T19:44:49.216Z,15.35
2023-01-25T19:47:18.621Z,18.35
2023-01-25T19:49:47.761Z,14.48
2023-01-25T19:52:17.415Z,18.98
2023-01-25T19:54:48.002Z,17.60
2023-01-25T19:57:17.593Z,14.65
2023-01-25T19:59:46.795Z,17.65
2023-01-25T20:02:16.123Z,18.20
2023-01-25T20:04:45.353Z,15.00
2023-01-25T20:07:14.735Z,16.73
2023-01-25T20:09:43.915Z,15.25
2023-01-25T20:12:14.831Z,16.45
2023-01-25T20:14:44.457Z,15.65
2023-01-25T20:17:14.279Z,15.48
2023-01-25T20:19:44.420Z,17.17
2023-01-25T20:22:13.943Z,15.32
2023-01-25T20:24:43.194Z,13.45
2023-01-25T20:27:14.379Z,19.25
2023-01-25T20:29:44.256Z,14.10
2023-01-25T20:32:30.619Z,15.82
2023-01-25T20:35:03.590Z,18.00
2023-01-25T20:37:33.034Z,16.88
2023-01-25T20:40:02.215Z,14.95
2023-01-25T20:42:33.022Z,16.77
2023-01-25T20:45:02.174Z,15.38
2023-01-25T20:47:31.536Z,14.93
2023-01-25T20:50:00.668Z,14.95
2023-01-25T20:52:30.151Z,14.88
2023-01-25T20:54:59.526Z,14.55
2023-01-25T20:57:29.010Z,15.75
2023-01-25T20:59:59.922Z,13.25
2023-01-25T21:02:29.291Z,14.40
2023-01-25T21:04:58.468Z,12.10
2023-01-25T21:07:27.853Z,14.88
2023-01-25T21:09:57.002Z,14.65
2023-01-25T21:12:26.512Z,13.98
2023-01-25T21:14:56.584Z,14.10
2023-01-25T21:17:27.414Z,13.70
2023-01-25T21:19:58.063Z,15.18
2023-01-25T21:22:29.978Z,14.30
2023-01-25T21:24:59.131Z,16.10
2023-01-25T21:27:29.711Z,12.90
2023-01-25T21:30:00.132Z,13.63
2023-01-25T21:32:31.230Z,11.25
2023-01-25T21:35:00.393Z,13.85
2023-01-25T21:37:30.975Z,14.07
2023-01-25T21:40:00.120Z,12.70
2023-01-25T21:42:32.175Z,12.48
2023-01-25T21:45:19.008Z,13.40
2023-01-25T21:47:49.866Z,14.85
2023-01-25T21:50:36.784Z,13.27
2023-01-25T21:53:06.432Z,13.48
2023-01-25T21:55:35.611Z,15.55
2023-01-25T21:58:05.084Z,13.85
2023-01-25T22:00:35.972Z,11.65
2023-01-25T22:03:06.891Z,13.93
2023-01-25T22:05:35.937Z,12.55
2023-01-25T22:08:05.594Z,13.82
2023-01-25T22:10:34.793Z,13.63
2023-01-25T22:13:04.221Z,12.13
2023-01-25T22:15:34.104Z,11.60
2023-01-25T22:18:03.581Z,12.18
2023-01-25T22:20:34.074Z,13.18
2023-01-25T22:23:03.523Z,10.82
2023-01-25T22:25:32.686Z,12.82
2023-01-25T22:28:07.452Z,11.98
2023-01-25T22:30:36.712Z,11.52
2023-01-25T22:33:07.329Z,11.38
2023-01-25T22:35:37.793Z,12.07
2023-01-25T22:38:07.207Z,12.73
2023-01-25T22:40:36.380Z,13.85
2023-01-25T22:43:05.935Z,14.85
2023-01-25T22:45:35.056Z,14.02
2023-01-25T22:48:04.536Z,12.70
2023-01-25T22:50:33.690Z,12.50
2023-01-25T22:53:04.503Z,11.50
2023-01-25T22:55:33.593Z,12.45
2023-01-25T22:58:03.004Z,11.95
2023-01-25T23:00:32.146Z,13.48
2023-01-25T23:03:01.563Z,13.00
2023-01-25T23:05:30.990Z,11.90
2023-01-25T23:08:00.486Z,13.18
2023-01-25T23:10:31.010Z,12.55
2023-01-25T23:13:00.497Z,11.98
2023-01-25T23:15:29.747Z,12.85
2023-01-25T23:18:16.452Z,12.75
2023-01-25T23:20:45.658Z,11.10
2023-01-25T23:23:15.063Z,12.95
2023-01-25T23:25:47.194Z,11.40
2023-01-25T23:28:16.675Z,12.90
2023-01-25T23:30:45.870Z,11.40
2023-01-25T23:33:15.292Z,11.75
2023-01-25T23:35:44.320Z,12.20
2023-01-25T23:38:15.292Z,12.35
2023-01-25T23:40:45.790Z,14.65
2023-01-25T23:43:15.391Z,13.05
2023-01-25T23:45:45.631Z,14.98
2023-01-25T23:48:15.049Z,14.10
2023-01-25T23:50:44.174Z,13.40
2023-01-25T23:53:13.533Z,11.95
2023-01-25T23:55:51.949Z,13.27
2023-01-25T23:58:21.983Z,12.55
